sensor_id;sensor_type;location;lat;lon;timestamp;P1;durP1;ratioP1;P2;durP2;ratioP2
45356;SDS011;31092;51.924;21.448;2024-01-27T00:00:17;27.00;;;8.70;;
45356;SDS011;31092;51.924;21.448;2024-01-27T00:02:43;16.17;;;8.38;;
45356;SDS011;31092;51.924;21.448;2024-01-27T00:05:08;15.68;;;7.80;;
45356;SDS011;31092;51.924;21.448;2024-01-27T00:07:34;16.98;;;8.52;;
45356;SDS011;31092;51.924;21.448;2024-01-27T00:09:59;15.10;;;7.70;;
45356;SDS011;31092;51.924;21.448;2024-01-27T00:12:25;16.35;;;8.63;;
45356;SDS011;31092;51.924;21.448;2024-01-27T00:14:50;12.20;;;6.93;;
45356;SDS011;31092;51.924;21.448;2024-01-27T00:17:16;17.13;;;6.70;;
45356;SDS011;31092;51.924;21.448;2024-01-27T00:19:41;9.80;;;5.70;;
45356;SDS011;31092;51.924;21.448;2024-01-27T00:22:07;13.40;;;6.90;;
45356;SDS011;31092;51.924;21.448;2024-01-27T00:24:33;12.02;;;6.28;;
45356;SDS011;31092;51.924;21.448;2024-01-27T00:26:59;16.00;;;5.82;;
45356;SDS011;31092;51.924;21.448;2024-01-27T00:29:25;7.32;;;3.97;;
45356;SDS011;31092;51.924;21.448;2024-01-27T00:31:51;6.90;;;4.60;;
45356;SDS011;31092;51.924;21.448;2024-01-27T00:34:16;12.18;;;5.82;;
45356;SDS011;31092;51.924;21.448;2024-01-27T00:36:42;6.15;;;4.25;;
45356;SDS011;31092;51.924;21.448;2024-01-27T00:39:14;5.03;;;3.17;;
45356;SDS011;31092;51.924;21.448;2024-01-27T00:41:40;3.10;;;1.85;;
45356;SDS011;31092;51.924;21.448;2024-01-27T00:44:05;3.97;;;1.42;;
45356;SDS011;31092;51.924;21.448;2024-01-27T00:46:31;1.23;;;1.13;;
45356;SDS011;31092;51.924;21.448;2024-01-27T00:48:56;5.25;;;1.60;;
45356;SDS011;31092;51.924;21.448;2024-01-27T00:51:21;2.58;;;2.22;;
45356;SDS011;31092;51.924;21.448;2024-01-27T00:53:48;0.77;;;0.70;;
45356;SDS011;31092;51.924;21.448;2024-01-27T00:56:13;2.92;;;0.95;;
45356;SDS011;31092;51.924;21.448;2024-01-27T00:58:39;2.30;;;1.35;;
45356;SDS011;31092;51.924;21.448;2024-01-27T01:01:04;1.15;;;1.05;;
45356;SDS011;31092;51.924;21.448;2024-01-27T01:03:30;7.32;;;0.80;;
45356;SDS011;31092;51.924;21.448;2024-01-27T01:05:55;0.93;;;0.93;;
45356;SDS011;31092;51.924;21.448;2024-01-27T01:08:21;1.77;;;1.02;;
45356;SDS011;31092;51.924;21.448;2024-01-27T01:10:47;2.95;;;1.40;;
45356;SDS011;31092;51.924;21.448;2024-01-27T01:13:12;1.10;;;0.93;;
45356;SDS011;31092;51.924;21.448;2024-01-27T01:15:38;0.47;;;0.47;;
45356;SDS011;31092;51.924;21.448;2024-01-27T01:18:04;2.88;;;1.27;;
45356;SDS011;31092;51.924;21.448;2024-01-27T01:20:30;5.85;;;1.27;;
45356;SDS011;31092;51.924;21.448;2024-01-27T01:22:57;0.85;;;0.50;;
45356;SDS011;31092;51.924;21.448;2024-01-27T01:25:23;5.50;;;1.20;;
45356;SDS011;31092;51.924;21.448;2024-01-27T01:27:48;3.13;;;1.00;;
45356;SDS011;31092;51.924;21.448;2024-01-27T01:30:15;1.20;;;1.10;;
45356;SDS011;31092;51.924;21.448;2024-01-27T01:32:41;4.18;;;1.08;;
45356;SDS011;31092;51.924;21.448;2024-01-27T01:35:07;7.85;;;1.48;;
45356;SDS011;31092;51.924;21.448;2024-01-27T01:37:33;3.63;;;1.10;;
45356;SDS011;31092;51.924;21.448;2024-01-27T01:39:59;1.17;;;0.73;;
45356;SDS011;31092;51.924;21.448;2024-01-27T01:42:24;2.80;;;0.93;;
45356;SDS011;31092;51.924;21.448;2024-01-27T01:44:50;1.73;;;1.15;;
45356;SDS011;31092;51.924;21.448;2024-01-27T01:47:16;1.02;;;0.88;;
45356;SDS011;31092;51.924;21.448;2024-01-27T01:49:42;1.10;;;0.80;;
45356;SDS011;31092;51.924;21.448;2024-01-27T01:52:08;0.93;;;0.82;;
45356;SDS011;31092;51.924;21.448;2024-01-27T01:54:34;4.18;;;1.17;;
45356;SDS011;31092;51.924;21.448;2024-01-27T01:57:00;5.90;;;1.38;;
45356;SDS011;31092;51.924;21.448;2024-01-27T01:59:25;0.52;;;0.52;;
45356;SDS011;31092;51.924;21.448;2024-01-27T02:01:51;14.20;;;1.10;;
45356;SDS011;31092;51.924;21.448;2024-01-27T02:04:16;0.52;;;0.32;;
45356;SDS011;31092;51.924;21.448;2024-01-27T02:06:42;2.33;;;1.05;;
45356;SDS011;31092;51.924;21.448;2024-01-27T02:09:07;2.63;;;1.10;;
45356;SDS011;31092;51.924;21.448;2024-01-27T02:11:34;3.40;;;0.60;;
45356;SDS011;31092;51.924;21.448;2024-01-27T02:14:00;2.03;;;0.82;;
45356;SDS011;31092;51.924;21.448;2024-01-27T02:16:26;7.43;;;1.10;;
45356;SDS011;31092;51.924;21.448;2024-01-27T02:18:51;2.70;;;1.20;;
45356;SDS011;31092;51.924;21.448;2024-01-27T02:21:16;2.50;;;0.57;;
45356;SDS011;31092;51.924;21.448;2024-01-27T02:23:42;1.65;;;1.10;;
45356;SDS011;31092;51.924;21.448;2024-01-27T02:26:07;5.07;;;1.25;;
45356;SDS011;31092;51.924;21.448;2024-01-27T02:28:33;2.55;;;1.05;;
45356;SDS011;31092;51.924;21.448;2024-01-27T02:31:00;1.77;;;0.75;;
45356;SDS011;31092;51.924;21.448;2024-01-27T02:33:25;2.67;;;0.90;;
45356;SDS011;31092;51.924;21.448;2024-01-27T02:35:51;5.45;;;1.38;;
45356;SDS011;31092;51.924;21.448;2024-01-27T02:38:16;5.05;;;1.13;;
45356;SDS011;31092;51.924;21.448;2024-01-27T02:40:42;2.47;;;1.20;;
45356;SDS011;31092;51.924;21.448;2024-01-27T02:43:07;3.40;;;1.00;;
45356;SDS011;31092;51.924;21.448;2024-01-27T02:45:32;2.88;;;0.88;;
45356;SDS011;31092;51.924;21.448;2024-01-27T02:47:58;2.13;;;1.42;;
45356;SDS011;31092;51.924;21.448;2024-01-27T02:50:23;9.70;;;1.02;;
45356;SDS011;31092;51.924;21.448;2024-01-27T02:52:49;2.63;;;1.20;;
45356;SDS011;31092;51.924;21.448;2024-01-27T02:55:14;3.85;;;1.67;;
45356;SDS011;31092;51.924;21.448;2024-01-27T02:57:40;1.13;;;0.90;;
45356;SDS011;31092;51.924;21.448;2024-01-27T03:00:06;1.17;;;1.10;;
45356;SDS011;31092;51.924;21.448;2024-01-27T03:02:32;7.28;;;1.33;;
45356;SDS011;31092;51.924;21.448;2024-01-27T03:04:58;4.13;;;1.42;;
45356;SDS011;31092;51.924;21.448;2024-01-27T03:07:23;3.28;;;1.83;;
45356;SDS011;31092;51.924;21.448;2024-01-27T03:09:48;10.65;;;1.85;;
45356;SDS011;31092;51.924;21.448;2024-01-27T03:12:14;3.45;;;0.93;;
45356;SDS011;31092;51.924;21.448;2024-01-27T03:14:40;1.10;;;1.00;;
45356;SDS011;31092;51.924;21.448;2024-01-27T03:17:07;3.03;;;1.35;;
45356;SDS011;31092;51.924;21.448;2024-01-27T03:19:32;6.47;;;0.88;;
45356;SDS011;31092;51.924;21.448;2024-01-27T03:21:58;4.22;;;0.75;;
45356;SDS011;31092;51.924;21.448;2024-01-27T03:24:23;6.07;;;1.40;;
45356;SDS011;31092;51.924;21.448;2024-01-27T03:26:49;2.17;;;0.98;;
45356;SDS011;31092;51.924;21.448;2024-01-27T03:29:14;3.55;;;1.45;;
45356;SDS011;31092;51.924;21.448;2024-01-27T03:31:40;8.48;;;1.58;;
45356;SDS011;31092;51.924;21.448;2024-01-27T03:34:05;2.30;;;1.10;;
45356;SDS011;31092;51.924;21.448;2024-01-27T03:36:31;7.10;;;1.42;;
45356;SDS011;31092;51.924;21.448;2024-01-27T03:38:56;3.88;;;0.90;;
45356;SDS011;31092;51.924;21.448;2024-01-27T03:41:24;2.13;;;1.25;;
45356;SDS011;31092;51.924;21.448;2024-01-27T03:43:49;3.35;;;1.00;;
45356;SDS011;31092;51.924;21.448;2024-01-27T03:46:15;3.40;;;0.93;;
45356;SDS011;31092;51.924;21.448;2024-01-27T03:48:41;4.35;;;1.60;;
45356;SDS011;31092;51.924;21.448;2024-01-27T03:51:06;1.63;;;0.65;;
45356;SDS011;31092;51.924;21.448;2024-01-27T03:53:32;9.90;;;2.47;;
45356;SDS011;31092;51.924;21.448;2024-01-27T03:55:58;2.47;;;1.33;;
45356;SDS011;31092;51.924;21.448;2024-01-27T03:58:24;6.45;;;1.65;;
45356;SDS011;31092;51.924;21.448;2024-01-27T04:00:50;5.95;;;1.35;;
45356;SDS011;31092;51.924;21.448;2024-01-27T04:03:16;3.92;;;1.20;;
45356;SDS011;31092;51.924;21.448;2024-01-27T04:05:42;5.65;;;2.20;;
45356;SDS011;31092;51.924;21.448;2024-01-27T04:08:07;1.58;;;0.95;;
45356;SDS011;31092;51.924;21.448;2024-01-27T04:10:33;7.40;;;1.35;;
45356;SDS011;31092;51.924;21.448;2024-01-27T04:12:59;1.60;;;1.20;;
45356;SDS011;31092;51.924;21.448;2024-01-27T04:15:24;4.70;;;1.65;;
45356;SDS011;31092;51.924;21.448;2024-01-27T04:17:50;1.73;;;1.33;;
45356;SDS011;31092;51.924;21.448;2024-01-27T04:20:15;2.60;;;0.90;;
45356;SDS011;31092;51.924;21.448;2024-01-27T04:22:41;4.07;;;1.20;;
45356;SDS011;31092;51.924;21.448;2024-01-27T04:25:07;3.78;;;1.83;;
45356;SDS011;31092;51.924;21.448;2024-01-27T04:27:36;1.95;;;1.00;;
45356;SDS011;31092;51.924;21.448;2024-01-27T04:32:29;1.95;;;0.93;;
45356;SDS011;31092;51.924;21.448;2024-01-27T04:34:54;3.63;;;1.42;;
45356;SDS011;31092;51.924;21.448;2024-01-27T04:37:20;4.63;;;1.42;;
45356;SDS011;31092;51.924;21.448;2024-01-27T04:39:45;3.30;;;1.45;;
45356;SDS011;31092;51.924;21.448;2024-01-27T04:42:10;5.95;;;1.92;;
45356;SDS011;31092;51.924;21.448;2024-01-27T04:44:39;5.90;;;1.17;;
45356;SDS011;31092;51.924;21.448;2024-01-27T04:47:05;2.40;;;0.90;;
45356;SDS011;31092;51.924;21.448;2024-01-27T04:49:31;5.70;;;1.48;;
45356;SDS011;31092;51.924;21.448;2024-01-27T04:51:56;4.05;;;1.48;;
45356;SDS011;31092;51.924;21.448;2024-01-27T04:54:21;1.90;;;1.05;;
45356;SDS011;31092;51.924;21.448;2024-01-27T04:56:47;3.22;;;0.95;;
45356;SDS011;31092;51.924;21.448;2024-01-27T04:59:12;6.63;;;1.52;;
45356;SDS011;31092;51.924;21.448;2024-01-27T05:01:38;1.33;;;1.02;;
45356;SDS011;31092;51.924;21.448;2024-01-27T05:04:03;12.90;;;1.45;;
45356;SDS011;31092;51.924;21.448;2024-01-27T05:06:30;1.88;;;1.30;;
45356;SDS011;31092;51.924;21.448;2024-01-27T05:08:55;2.08;;;1.25;;
45356;SDS011;31092;51.924;21.448;2024-01-27T05:11:30;3.65;;;1.60;;
45356;SDS011;31092;51.924;21.448;2024-01-27T05:13:57;2.35;;;1.58;;
45356;SDS011;31092;51.924;21.448;2024-01-27T05:16:26;7.50;;;1.48;;
45356;SDS011;31092;51.924;21.448;2024-01-27T05:18:52;5.65;;;1.52;;
45356;SDS011;31092;51.924;21.448;2024-01-27T05:21:18;8.60;;;1.58;;
45356;SDS011;31092;51.924;21.448;2024-01-27T05:23:43;5.78;;;2.13;;
45356;SDS011;31092;51.924;21.448;2024-01-27T05:26:09;8.10;;;1.90;;
45356;SDS011;31092;51.924;21.448;2024-01-27T05:28:36;8.60;;;1.80;;
45356;SDS011;31092;51.924;21.448;2024-01-27T05:31:03;9.43;;;2.30;;
45356;SDS011;31092;51.924;21.448;2024-01-27T05:33:29;6.47;;;1.27;;
45356;SDS011;31092;51.924;21.448;2024-01-27T05:35:54;3.90;;;1.58;;
45356;SDS011;31092;51.924;21.448;2024-01-27T05:38:20;6.78;;;1.42;;
45356;SDS011;31092;51.924;21.448;2024-01-27T05:40:45;6.95;;;1.75;;
45356;SDS011;31092;51.924;21.448;2024-01-27T05:43:11;6.97;;;1.30;;
45356;SDS011;31092;51.924;21.448;2024-01-27T05:45:36;1.92;;;0.95;;
45356;SDS011;31092;51.924;21.448;2024-01-27T05:48:02;3.58;;;1.10;;
45356;SDS011;31092;51.924;21.448;2024-01-27T05:50:27;3.22;;;1.27;;
45356;SDS011;31092;51.924;21.448;2024-01-27T05:52:55;3.60;;;1.23;;
45356;SDS011;31092;51.924;21.448;2024-01-27T05:55:20;0.70;;;0.70;;
45356;SDS011;31092;51.924;21.448;2024-01-27T05:57:46;2.45;;;0.80;;
45356;SDS011;31092;51.924;21.448;2024-01-27T06:00:12;3.92;;;1.40;;
45356;SDS011;31092;51.924;21.448;2024-01-27T06:02:38;2.35;;;1.08;;
45356;SDS011;31092;51.924;21.448;2024-01-27T06:05:04;3.95;;;1.75;;
45356;SDS011;31092;51.924;21.448;2024-01-27T06:07:29;1.40;;;0.70;;
45356;SDS011;31092;51.924;21.448;2024-01-27T06:09:55;3.50;;;1.73;;
45356;SDS011;31092;51.924;21.448;2024-01-27T06:12:20;7.43;;;2.03;;
45356;SDS011;31092;51.924;21.448;2024-01-27T06:14:46;9.57;;;1.73;;
45356;SDS011;31092;51.924;21.448;2024-01-27T06:17:11;6.43;;;2.03;;
45356;SDS011;31092;51.924;21.448;2024-01-27T06:19:39;3.25;;;1.05;;
45356;SDS011;31092;51.924;21.448;2024-01-27T06:22:05;4.90;;;1.60;;
45356;SDS011;31092;51.924;21.448;2024-01-27T06:24:30;4.75;;;1.67;;
45356;SDS011;31092;51.924;21.448;2024-01-27T06:26:56;2.28;;;1.40;;
45356;SDS011;31092;51.924;21.448;2024-01-27T06:29:21;10.55;;;1.85;;
45356;SDS011;31092;51.924;21.448;2024-01-27T06:31:48;3.42;;;1.38;;
45356;SDS011;31092;51.924;21.448;2024-01-27T06:34:13;6.47;;;1.67;;
45356;SDS011;31092;51.924;21.448;2024-01-27T06:36:39;7.18;;;1.92;;
45356;SDS011;31092;51.924;21.448;2024-01-27T06:39:04;1.98;;;1.15;;
45356;SDS011;31092;51.924;21.448;2024-01-27T06:41:30;4.72;;;2.08;;
45356;SDS011;31092;51.924;21.448;2024-01-27T06:43:55;3.85;;;1.08;;
45356;SDS011;31092;51.924;21.448;2024-01-27T06:46:20;3.65;;;1.70;;
45356;SDS011;31092;51.924;21.448;2024-01-27T06:48:46;3.05;;;2.65;;
45356;SDS011;31092;51.924;21.448;2024-01-27T06:51:11;5.80;;;1.60;;
45356;SDS011;31092;51.924;21.448;2024-01-27T06:53:37;5.30;;;1.70;;
45356;SDS011;31092;51.924;21.448;2024-01-27T06:56:02;6.60;;;1.58;;
45356;SDS011;31092;51.924;21.448;2024-01-27T06:58:28;6.75;;;1.40;;
45356;SDS011;31092;51.924;21.448;2024-01-27T07:00:54;5.40;;;1.90;;
45356;SDS011;31092;51.924;21.448;2024-01-27T07:03:20;2.15;;;1.25;;
45356;SDS011;31092;51.924;21.448;2024-01-27T07:05:45;6.90;;;1.30;;
45356;SDS011;31092;51.924;21.448;2024-01-27T07:08:10;4.28;;;1.20;;
45356;SDS011;31092;51.924;21.448;2024-01-27T07:10:36;5.70;;;1.67;;
45356;SDS011;31092;51.924;21.448;2024-01-27T07:13:02;1.55;;;1.42;;
45356;SDS011;31092;51.924;21.448;2024-01-27T07:15:27;6.53;;;1.60;;
45356;SDS011;31092;51.924;21.448;2024-01-27T07:17:53;7.95;;;1.38;;
45356;SDS011;31092;51.924;21.448;2024-01-27T07:20:19;2.63;;;0.90;;
45356;SDS011;31092;51.924;21.448;2024-01-27T07:22:46;4.32;;;1.83;;
45356;SDS011;31092;51.924;21.448;2024-01-27T07:25:12;2.78;;;1.10;;
45356;SDS011;31092;51.924;21.448;2024-01-27T07:27:38;4.30;;;1.65;;
45356;SDS011;31092;51.924;21.448;2024-01-27T07:30:04;5.55;;;1.67;;
45356;SDS011;31092;51.924;21.448;2024-01-27T07:32:31;5.25;;;1.38;;
45356;SDS011;31092;51.924;21.448;2024-01-27T07:34:57;4.78;;;1.63;;
45356;SDS011;31092;51.924;21.448;2024-01-27T07:37:22;4.30;;;1.60;;
45356;SDS011;31092;51.924;21.448;2024-01-27T07:39:47;5.28;;;1.27;;
45356;SDS011;31092;51.924;21.448;2024-01-27T07:42:14;4.75;;;1.95;;
45356;SDS011;31092;51.924;21.448;2024-01-27T07:44:40;8.70;;;1.83;;
45356;SDS011;31092;51.924;21.448;2024-01-27T07:47:07;3.92;;;1.38;;
45356;SDS011;31092;51.924;21.448;2024-01-27T07:49:33;4.95;;;1.25;;
45356;SDS011;31092;51.924;21.448;2024-01-27T07:52:08;7.25;;;1.50;;
45356;SDS011;31092;51.924;21.448;2024-01-27T07:54:41;4.40;;;1.42;;
45356;SDS011;31092;51.924;21.448;2024-01-27T07:57:06;3.40;;;1.80;;
45356;SDS011;31092;51.924;21.448;2024-01-27T07:59:32;2.05;;;1.55;;
45356;SDS011;31092;51.924;21.448;2024-01-27T08:01:58;2.22;;;1.25;;
45356;SDS011;31092;51.924;21.448;2024-01-27T08:04:25;1.65;;;1.20;;
45356;SDS011;31092;51.924;21.448;2024-01-27T08:06:50;3.30;;;1.50;;
45356;SDS011;31092;51.924;21.448;2024-01-27T08:09:16;4.13;;;1.95;;
45356;SDS011;31092;51.924;21.448;2024-01-27T08:11:43;6.20;;;1.30;;
45356;SDS011;31092;51.924;21.448;2024-01-27T08:14:08;3.28;;;1.65;;
45356;SDS011;31092;51.924;21.448;2024-01-27T08:16:34;3.50;;;1.80;;
45356;SDS011;31092;51.924;21.448;2024-01-27T08:19:00;6.90;;;1.88;;
45356;SDS011;31092;51.924;21.448;2024-01-27T08:21:25;5.25;;;1.52;;
45356;SDS011;31092;51.924;21.448;2024-01-27T08:23:51;7.10;;;2.03;;
45356;SDS011;31092;51.924;21.448;2024-01-27T08:26:16;7.32;;;1.77;;
45356;SDS011;31092;51.924;21.448;2024-01-27T08:28:43;5.10;;;2.10;;
45356;SDS011;31092;51.924;21.448;2024-01-27T08:31:09;5.15;;;1.88;;
45356;SDS011;31092;51.924;21.448;2024-01-27T08:33:35;6.60;;;2.13;;
45356;SDS011;31092;51.924;21.448;2024-01-27T08:36:00;2.55;;;1.40;;
45356;SDS011;31092;51.924;21.448;2024-01-27T08:38:27;7.90;;;3.50;;
45356;SDS011;31092;51.924;21.448;2024-01-27T08:40:52;3.25;;;1.63;;
45356;SDS011;31092;51.924;21.448;2024-01-27T08:43:18;3.15;;;1.15;;
45356;SDS011;31092;51.924;21.448;2024-01-27T08:45:43;4.03;;;1.67;;
45356;SDS011;31092;51.924;21.448;2024-01-27T08:48:09;7.13;;;1.50;;
45356;SDS011;31092;51.924;21.448;2024-01-27T08:50:36;1.88;;;1.60;;
45356;SDS011;31092;51.924;21.448;2024-01-27T08:53:02;5.13;;;1.65;;
45356;SDS011;31092;51.924;21.448;2024-01-27T08:55:27;6.90;;;1.55;;
45356;SDS011;31092;51.924;21.448;2024-01-27T08:57:53;6.88;;;1.60;;
45356;SDS011;31092;51.924;21.448;2024-01-27T09:00:18;5.72;;;2.20;;
45356;SDS011;31092;51.924;21.448;2024-01-27T09:02:44;5.55;;;1.33;;
45356;SDS011;31092;51.924;21.448;2024-01-27T09:05:10;4.13;;;2.55;;
45356;SDS011;31092;51.924;21.448;2024-01-27T09:07:35;2.40;;;1.52;;
45356;SDS011;31092;51.924;21.448;2024-01-27T09:10:02;6.25;;;1.75;;
45356;SDS011;31092;51.924;21.448;2024-01-27T09:12:28;4.13;;;1.45;;
45356;SDS011;31092;51.924;21.448;2024-01-27T09:14:53;8.73;;;1.70;;
45356;SDS011;31092;51.924;21.448;2024-01-27T09:17:19;5.55;;;1.42;;
45356;SDS011;31092;51.924;21.448;2024-01-27T09:19:48;1.50;;;1.40;;
45356;SDS011;31092;51.924;21.448;2024-01-27T09:22:13;2.78;;;1.30;;
45356;SDS011;31092;51.924;21.448;2024-01-27T09:24:39;3.13;;;1.35;;
45356;SDS011;31092;51.924;21.448;2024-01-27T09:27:05;5.15;;;1.75;;
45356;SDS011;31092;51.924;21.448;2024-01-27T09:29:30;1.58;;;1.48;;
45356;SDS011;31092;51.924;21.448;2024-01-27T09:31:56;4.47;;;1.38;;
45356;SDS011;31092;51.924;21.448;2024-01-27T09:34:21;9.38;;;1.58;;
45356;SDS011;31092;51.924;21.448;2024-01-27T09:36:47;5.78;;;1.95;;
45356;SDS011;31092;51.924;21.448;2024-01-27T09:39:12;7.88;;;1.83;;
45356;SDS011;31092;51.924;21.448;2024-01-27T09:41:38;1.98;;;1.50;;
45356;SDS011;31092;51.924;21.448;2024-01-27T09:44:03;2.20;;;1.90;;
45356;SDS011;31092;51.924;21.448;2024-01-27T09:46:30;1.63;;;1.15;;
45356;SDS011;31092;51.924;21.448;2024-01-27T09:48:57;7.90;;;1.40;;
45356;SDS011;31092;51.924;21.448;2024-01-27T09:51:24;3.85;;;1.67;;
45356;SDS011;31092;51.924;21.448;2024-01-27T09:53:50;3.35;;;1.75;;
45356;SDS011;31092;51.924;21.448;2024-01-27T09:56:16;5.28;;;1.50;;
45356;SDS011;31092;51.924;21.448;2024-01-27T09:58:44;2.15;;;1.50;;
45356;SDS011;31092;51.924;21.448;2024-01-27T10:01:10;3.40;;;1.30;;
45356;SDS011;31092;51.924;21.448;2024-01-27T10:03:38;5.68;;;1.75;;
45356;SDS011;31092;51.924;21.448;2024-01-27T10:06:07;1.73;;;1.60;;
45356;SDS011;31092;51.924;21.448;2024-01-27T10:08:34;4.05;;;1.60;;
45356;SDS011;31092;51.924;21.448;2024-01-27T10:10:59;1.63;;;1.40;;
45356;SDS011;31092;51.924;21.448;2024-01-27T10:13:32;2.42;;;1.77;;
45356;SDS011;31092;51.924;21.448;2024-01-27T10:16:01;3.20;;;2.03;;
45356;SDS011;31092;51.924;21.448;2024-01-27T10:18:30;2.33;;;1.55;;
45356;SDS011;31092;51.924;21.448;2024-01-27T10:20:56;2.63;;;2.38;;
45356;SDS011;31092;51.924;21.448;2024-01-27T10:23:22;2.92;;;1.42;;
45356;SDS011;31092;51.924;21.448;2024-01-27T10:25:48;1.63;;;1.13;;
45356;SDS011;31092;51.924;21.448;2024-01-27T10:28:14;2.03;;;1.35;;
45356;SDS011;31092;51.924;21.448;2024-01-27T10:30:40;2.25;;;1.50;;
45356;SDS011;31092;51.924;21.448;2024-01-27T10:33:07;3.60;;;1.17;;
45356;SDS011;31092;51.924;21.448;2024-01-27T10:35:35;3.40;;;1.73;;
45356;SDS011;31092;51.924;21.448;2024-01-27T10:38:00;2.05;;;1.77;;
45356;SDS011;31092;51.924;21.448;2024-01-27T10:40:26;1.67;;;1.55;;
45356;SDS011;31092;51.924;21.448;2024-01-27T10:43:10;2.30;;;1.58;;
45356;SDS011;31092;51.924;21.448;2024-01-27T10:45:39;2.85;;;1.75;;
45356;SDS011;31092;51.924;21.448;2024-01-27T10:48:06;1.63;;;1.42;;
45356;SDS011;31092;51.924;21.448;2024-01-27T10:50:34;5.47;;;1.52;;
45356;SDS011;31092;51.924;21.448;2024-01-27T10:53:02;2.08;;;1.50;;
45356;SDS011;31092;51.924;21.448;2024-01-27T10:55:30;2.15;;;1.80;;
45356;SDS011;31092;51.924;21.448;2024-01-27T10:57:58;1.55;;;1.45;;
45356;SDS011;31092;51.924;21.448;2024-01-27T11:00:27;2.97;;;1.90;;
45356;SDS011;31092;51.924;21.448;2024-01-27T11:02:53;2.60;;;2.00;;
45356;SDS011;31092;51.924;21.448;2024-01-27T11:05:22;2.83;;;2.03;;
45356;SDS011;31092;51.924;21.448;2024-01-27T11:07:49;3.65;;;2.03;;
45356;SDS011;31092;51.924;21.448;2024-01-27T11:10:17;4.45;;;2.03;;
45356;SDS011;31092;51.924;21.448;2024-01-27T11:12:42;5.07;;;2.20;;
45356;SDS011;31092;51.924;21.448;2024-01-27T11:15:09;3.63;;;2.40;;
45356;SDS011;31092;51.924;21.448;2024-01-27T11:17:40;2.63;;;1.95;;
45356;SDS011;31092;51.924;21.448;2024-01-27T11:20:07;3.47;;;1.70;;
45356;SDS011;31092;51.924;21.448;2024-01-27T11:22:41;2.50;;;1.73;;
45356;SDS011;31092;51.924;21.448;2024-01-27T11:27:37;3.83;;;2.05;;
45356;SDS011;31092;51.924;21.448;2024-01-27T11:30:04;1.48;;;1.33;;
45356;SDS011;31092;51.924;21.448;2024-01-27T11:32:31;3.42;;;1.63;;
45356;SDS011;31092;51.924;21.448;2024-01-27T11:35:00;1.70;;;1.60;;
45356;SDS011;31092;51.924;21.448;2024-01-27T11:37:29;2.10;;;1.80;;
45356;SDS011;31092;51.924;21.448;2024-01-27T11:40:05;5.30;;;2.03;;
45356;SDS011;31092;51.924;21.448;2024-01-27T11:42:31;3.25;;;2.33;;
45356;SDS011;31092;51.924;21.448;2024-01-27T11:44:57;3.03;;;1.70;;
45356;SDS011;31092;51.924;21.448;2024-01-27T11:47:22;3.20;;;2.00;;
45356;SDS011;31092;51.924;21.448;2024-01-27T11:49:51;3.03;;;1.92;;
45356;SDS011;31092;51.924;21.448;2024-01-27T11:52:22;2.47;;;2.03;;
45356;SDS011;31092;51.924;21.448;2024-01-27T11:54:55;1.95;;;1.70;;
45356;SDS011;31092;51.924;21.448;2024-01-27T11:57:21;3.28;;;1.70;;
45356;SDS011;31092;51.924;21.448;2024-01-27T11:59:46;4.95;;;2.38;;
45356;SDS011;31092;51.924;21.448;2024-01-27T12:02:12;2.17;;;1.98;;
45356;SDS011;31092;51.924;21.448;2024-01-27T12:04:38;2.22;;;1.80;;
45356;SDS011;31092;51.924;21.448;2024-01-27T12:07:03;3.40;;;2.00;;
45356;SDS011;31092;51.924;21.448;2024-01-27T12:09:29;2.80;;;1.85;;
45356;SDS011;31092;51.924;21.448;2024-01-27T12:11:54;2.10;;;1.98;;
45356;SDS011;31092;51.924;21.448;2024-01-27T12:14:20;2.20;;;1.70;;
45356;SDS011;31092;51.924;21.448;2024-01-27T12:16:45;3.05;;;2.38;;
45356;SDS011;31092;51.924;21.448;2024-01-27T12:19:12;2.42;;;1.85;;
45356;SDS011;31092;51.924;21.448;2024-01-27T12:21:38;3.13;;;1.58;;
45356;SDS011;31092;51.924;21.448;2024-01-27T12:24:04;2.65;;;1.92;;
45356;SDS011;31092;51.924;21.448;2024-01-27T12:26:30;2.10;;;1.80;;
45356;SDS011;31092;51.924;21.448;2024-01-27T12:28:56;2.45;;;2.22;;
45356;SDS011;31092;51.924;21.448;2024-01-27T12:31:23;4.53;;;2.13;;
45356;SDS011;31092;51.924;21.448;2024-01-27T12:33:49;1.40;;;1.30;;
45356;SDS011;31092;51.924;21.448;2024-01-27T12:36:19;2.65;;;2.10;;
45356;SDS011;31092;51.924;21.448;2024-01-27T12:38:47;3.33;;;2.63;;
45356;SDS011;31092;51.924;21.448;2024-01-27T12:41:17;2.53;;;1.88;;
45356;SDS011;31092;51.924;21.448;2024-01-27T12:43:42;2.38;;;2.17;;
45356;SDS011;31092;51.924;21.448;2024-01-27T12:46:08;2.55;;;1.85;;
45356;SDS011;31092;51.924;21.448;2024-01-27T12:48:33;2.53;;;1.92;;
45356;SDS011;31092;51.924;21.448;2024-01-27T12:50:59;3.92;;;2.58;;
45356;SDS011;31092;51.924;21.448;2024-01-27T12:53:25;2.58;;;2.00;;
45356;SDS011;31092;51.924;21.448;2024-01-27T12:55:51;2.90;;;1.98;;
45356;SDS011;31092;51.924;21.448;2024-01-27T12:58:16;2.53;;;2.33;;
45356;SDS011;31092;51.924;21.448;2024-01-27T13:00:42;1.65;;;1.55;;
45356;SDS011;31092;51.924;21.448;2024-01-27T13:03:07;3.33;;;2.33;;
45356;SDS011;31092;51.924;21.448;2024-01-27T13:05:33;3.60;;;2.20;;
45356;SDS011;31092;51.924;21.448;2024-01-27T13:07:59;3.03;;;2.72;;
45356;SDS011;31092;51.924;21.448;2024-01-27T13:10:25;2.65;;;2.38;;
45356;SDS011;31092;51.924;21.448;2024-01-27T13:12:50;3.95;;;2.80;;
45356;SDS011;31092;51.924;21.448;2024-01-27T13:15:15;2.42;;;2.25;;
45356;SDS011;31092;51.924;21.448;2024-01-27T13:17:41;5.78;;;2.95;;
45356;SDS011;31092;51.924;21.448;2024-01-27T13:20:07;4.32;;;2.92;;
45356;SDS011;31092;51.924;21.448;2024-01-27T13:22:32;5.45;;;3.78;;
45356;SDS011;31092;51.924;21.448;2024-01-27T13:24:58;4.20;;;3.75;;
45356;SDS011;31092;51.924;21.448;2024-01-27T13:27:26;3.67;;;3.38;;
45356;SDS011;31092;51.924;21.448;2024-01-27T13:29:52;6.13;;;3.22;;
45356;SDS011;31092;51.924;21.448;2024-01-27T13:32:17;3.80;;;3.40;;
45356;SDS011;31092;51.924;21.448;2024-01-27T13:34:43;5.55;;;3.42;;
45356;SDS011;31092;51.924;21.448;2024-01-27T13:37:08;5.60;;;3.70;;
45356;SDS011;31092;51.924;21.448;2024-01-27T13:39:35;6.65;;;4.00;;
45356;SDS011;31092;51.924;21.448;2024-01-27T13:42:01;4.72;;;3.92;;
45356;SDS011;31092;51.924;21.448;2024-01-27T13:44:26;4.28;;;3.33;;
45356;SDS011;31092;51.924;21.448;2024-01-27T13:46:51;5.63;;;3.80;;
45356;SDS011;31092;51.924;21.448;2024-01-27T13:49:18;5.78;;;3.92;;
45356;SDS011;31092;51.924;21.448;2024-01-27T13:51:45;6.40;;;3.38;;
45356;SDS011;31092;51.924;21.448;2024-01-27T13:54:10;4.88;;;3.58;;
45356;SDS011;31092;51.924;21.448;2024-01-27T13:56:36;7.25;;;4.90;;
45356;SDS011;31092;51.924;21.448;2024-01-27T13:59:01;5.00;;;4.35;;
45356;SDS011;31092;51.924;21.448;2024-01-27T14:01:29;8.60;;;4.65;;
45356;SDS011;31092;51.924;21.448;2024-01-27T14:03:54;6.28;;;3.83;;
45356;SDS011;31092;51.924;21.448;2024-01-27T14:06:20;6.03;;;3.88;;
45356;SDS011;31092;51.924;21.448;2024-01-27T14:08:46;10.00;;;4.10;;
45356;SDS011;31092;51.924;21.448;2024-01-27T14:11:11;7.35;;;4.18;;
45356;SDS011;31092;51.924;21.448;2024-01-27T14:13:37;9.65;;;4.97;;
45356;SDS011;31092;51.924;21.448;2024-01-27T14:16:02;6.93;;;4.22;;
45356;SDS011;31092;51.924;21.448;2024-01-27T14:18:28;4.97;;;3.90;;
45356;SDS011;31092;51.924;21.448;2024-01-27T14:20:53;7.20;;;4.47;;
45356;SDS011;31092;51.924;21.448;2024-01-27T14:23:19;6.78;;;4.40;;
45356;SDS011;31092;51.924;21.448;2024-01-27T14:25:44;7.05;;;3.47;;
45356;SDS011;31092;51.924;21.448;2024-01-27T14:28:10;6.55;;;4.18;;
45356;SDS011;31092;51.924;21.448;2024-01-27T14:30:36;5.25;;;3.90;;